Euskara    
Meteorología y climatología de Navarra
Datos de la estación - Meteo Navarra

Estación de Isaba-Refugio Belagua GN

Altitud 1422 m.


Datos desde el 14/01/2021 hasta el 15/01/2021 en horario solar
Los datos son PROVISIONALES

Anterior Página 1 de 1 Siguiente Descargar: Formato para Excel 2000 o superior   Formato csv   Formato para OpenOffice Calc
Fecha Temperatura Humedad relativa Radiación global Insolación Precipitación Vel. viento 10 m Vel. viento 10 m Dir. viento 10 m
°C % W/m² s l/m² m/s km/h °
14/01/2021 0:00 -0.7 89 0.0 0 0.0 4.5 16.1 13
14/01/2021 0:10 -0.4 85 0.0 0 0.0 4.4 15.8 11
14/01/2021 0:20 -0.5 86 0.0 0 0.0 5.0 18.1 8
14/01/2021 0:30 -0.5 86 0.0 0 0.0 4.5 16.3 12
14/01/2021 0:40 -0.5 86 0.0 0 0.0 6.0 21.6 7
14/01/2021 0:50 -0.5 87 0.0 0 0.0 7.0 25.3 7
14/01/2021 1:00 -0.8 92 0.0 0 0.0 7.3 26.3 7
14/01/2021 1:10 -0.9 94 0.0 0 0.0 6.3 22.7 8
14/01/2021 1:20 -0.9 94 0.0 0 0.0 5.4 19.4 10
14/01/2021 1:30 -0.9 94 0.0 0 0.0 5.4 19.3 7
14/01/2021 1:40 -1.0 94 0.0 0 0.0 6.4 23.1 8
14/01/2021 1:50 -0.9 93 0.0 0 0.0 6.3 22.8 5
14/01/2021 2:00 -1.0 92 0.0 0 0.0 5.8 21.0 10
14/01/2021 2:10 -1.0 94 0.0 0 0.0 5.0 18.0 10
14/01/2021 2:20 -1.1 94 0.0 0 0.0 6.1 21.9 12
14/01/2021 2:30 -1.2 95 0.0 0 0.0 5.8 20.7 8
14/01/2021 2:40 -1.2 95 0.0 0 0.0 6.5 23.5 9
14/01/2021 2:50 -1.3 96 0.0 0 0.0 7.0 25.1 11
14/01/2021 3:00 -1.5 98 0.0 0 0.0 7.6 27.4 17
14/01/2021 3:10 -1.3 95 0.0 0 0.0 8.1 29.1 17
14/01/2021 3:20 -0.9 86 0.0 0 0.0 7.6 27.5 17
14/01/2021 3:30 -0.8 86 0.0 0 0.0 8.0 28.8 19
14/01/2021 3:40 -1.2 90 0.0 0 0.0 9.2 33.2 15
14/01/2021 3:50 -1.3 91 0.0 0 0.0 9.9 35.5 13
14/01/2021 4:00 -1.4 93 0.0 0 0.0 10.3 37.0 14
14/01/2021 4:10 -1.3 91 0.0 0 0.0 10.5 37.7 12
14/01/2021 4:20 -1.3 92 0.0 0 0.0 9.5 34.1 16
14/01/2021 4:30 -1.2 91 0.0 0 0.0 8.3 29.9 20
14/01/2021 4:40 -1.1 88 0.0 0 0.0 7.9 28.3 19
14/01/2021 4:50 -0.6 81 0.0 0 0.0 7.2 25.9 21
14/01/2021 5:00 0.2 71 0.0 0 0.0 7.6 27.4 19
14/01/2021 5:10 -0.6 80 0.0 0 0.0 8.5 30.7 16
14/01/2021 5:20 -1.6 94 0.0 0 0.0 9.3 33.5 13
14/01/2021 5:30 -1.6 98 0.0 0 0.0 7.1 25.5 18
14/01/2021 5:40 -1.6 97 0.0 0 0.0 6.4 23.1 17
14/01/2021 5:50 -1.4 92 0.0 0 0.0 6.0 21.5 28
14/01/2021 6:00 -0.1 72 0.0 0 0.0 5.7 20.4 33
14/01/2021 6:10 0.8 60 0.0 0 0.0 5.3 19.2 35
14/01/2021 6:20 0.9 59 0.0 0 0.0 5.7 20.6 42
14/01/2021 6:30 1.3 54 0.0 0 0.0 6.0 21.7 57
14/01/2021 6:40 0.8 58 0.0 0 0.0 6.4 23.1 59
14/01/2021 6:50 1.3 52 0.0 0 0.0 6.8 24.3 58
14/01/2021 7:00 0.9 58 0.0 0 0.0 8.1 29.2 49
14/01/2021 7:10 0.9 58 0.0 0 0.0 8.3 29.8 47
14/01/2021 7:20 1.5 53 0.0 0 0.0 8.0 28.6 45
14/01/2021 7:30 1.4 53 0.0 0 0.0 8.2 29.4 43
14/01/2021 7:40 0.9 59 0.0 0 0.0 9.7 35.0 51
14/01/2021 7:50 1.8 51 2.6 0 0.0 8.9 32.0 46
14/01/2021 8:00 1.3 56 14.5 0 0.0 8.6 30.8 41
14/01/2021 8:10 0.1 70 22.6 0 0.0 9.0 32.5 31
14/01/2021 8:20 -0.5 75 28.8 0 0.0 8.3 29.8 30
14/01/2021 8:30 -1.3 86 45.9 0 0.0 11.1 40.0 20
14/01/2021 8:40 -1.9 96 56.1 0 0.0 11.1 40.0 25
14/01/2021 8:50 -1.9 98 64.9 0 0.0 10.0 36.1 25
14/01/2021 9:00 -1.8 98 85.7 30 0.0 8.1 29.3 21
14/01/2021 9:10 -1.5 98 124.8 400 0.0 6.6 23.8 20
14/01/2021 9:20 -1.3 98 118.3 192 0.0 4.3 15.4 19
14/01/2021 9:30 -0.9 98 214.4 590 0.0 2.1 7.4 16
14/01/2021 9:40 -0.7 97 219.7 600 0.0 2.0 7.0 62
14/01/2021 9:50 -0.5 97 250.9 600 0.0 3.9 14.1 121
14/01/2021 10:00 -0.4 97 277.1 600 0.0 3.2 11.5 120
14/01/2021 10:10 -0.2 97 285.2 600 0.0 3.0 10.9 118
14/01/2021 10:20 -0.1 97 318.5 600 0.0 3.1 11.3 96
14/01/2021 10:30 -0.0 97 332.5 600 0.0 5.0 18.1 109
14/01/2021 10:40 -0.0 97 326.8 600 0.0 6.3 22.8 100
14/01/2021 10:50 -0.1 97 364.2 600 0.0 5.2 18.8 100
14/01/2021 11:00 0.0 96 414.0 600 0.0 6.3 22.6 112
14/01/2021 11:10 0.1 96 469.3 600 0.0 7.1 25.6 98
14/01/2021 11:20 0.2 95 585.7 600 0.0 6.7 24.2 98
14/01/2021 11:30 0.4 93 689.0 600 0.0 5.8 21.0 93
14/01/2021 11:40 0.5 92 665.6 600 0.0 4.2 15.0 81
14/01/2021 11:50 0.5 92 708.6 600 0.0 3.9 14.0 102
14/01/2021 12:00 0.6 91 710.6 600 0.0 5.4 19.6 101
14/01/2021 12:10 0.7 89 591.1 600 0.0 5.8 21.0 66
14/01/2021 12:20 0.3 90 578.6 600 0.0 7.7 27.7 32
14/01/2021 12:30 0.2 91 591.8 600 0.0 6.1 21.9 44
14/01/2021 12:40 0.6 88 596.9 600 0.0 4.6 16.7 77
14/01/2021 12:50 0.5 89 657.0 600 0.0 4.6 16.7 68
14/01/2021 13:00 0.5 90 676.8 600 0.0 4.0 14.3 68
14/01/2021 13:10 0.7 90 695.9 600 0.0 4.6 16.7 107
14/01/2021 13:20 0.6 90 653.6 600 0.0 3.4 12.4 103
14/01/2021 13:30 0.5 91 632.8 600 0.0 4.2 15.3 91
14/01/2021 13:40 0.4 90 623.3 600 0.0 5.1 18.5 67
14/01/2021 13:50 0.1 93 498.0 600 0.0 3.4 12.2 60
14/01/2021 14:00 0.1 93 436.6 600 0.0 2.8 10.2 99
14/01/2021 14:10 0.2 91 491.6 600 0.0 5.5 19.8 106
14/01/2021 14:20 0.1 91 399.7 600 0.0 6.5 23.2 102
14/01/2021 14:30 0.2 92 340.0 600 0.0 7.4 26.6 98
14/01/2021 14:40 0.4 93 316.2 600 0.0 7.9 28.4 94
14/01/2021 14:50 0.5 93 174.7 272 0.0 8.5 30.4 91
14/01/2021 15:00 0.4 94 144.8 270 0.0 8.4 30.3 91
14/01/2021 15:10 0.7 94 160.4 390 0.0 7.8 27.9 94
14/01/2021 15:20 1.0 93 216.3 600 0.0 7.8 28.0 95
14/01/2021 15:30 1.0 93 136.8 504 0.0 7.9 28.5 100
14/01/2021 15:40 1.1 93 96.5 100 0.0 8.7 31.1 108
14/01/2021 15:50 0.9 94 74.6 0 0.0 8.0 28.8 114
14/01/2021 16:00 0.8 95 55.6 0 0.0 8.6 30.8 113
14/01/2021 16:10 0.8 96 39.0 0 0.0 8.2 29.3 108
14/01/2021 16:20 1.0 97 29.0 0 0.0 7.8 28.1 116
14/01/2021 16:30 1.2 97 17.1 0 0.0 7.2 25.8 118
14/01/2021 16:40 1.3 97 4.1 0 0.0 5.7 20.6 109
14/01/2021 16:50 1.5 96 0.0 0 0.0 2.2 7.8 40
14/01/2021 17:00 1.4 96 0.0 0 0.0 2.8 10.0 140
14/01/2021 17:10 1.3 98 0.0 0 0.1 5.7 20.3 120
14/01/2021 17:20 1.2 99 0.0 0 0.5 3.0 10.9 129
14/01/2021 17:30 1.5 98 0.0 0 0.1 3.5 12.4 149
14/01/2021 17:40 1.4 99 0.0 0 0.1 4.7 16.8 121
14/01/2021 17:50 1.5 99 0.0 0 0.3 5.0 18.1 112
14/01/2021 18:00 1.6 99 0.0 0 0.6 5.6 20.3 126
14/01/2021 18:10 1.7 99 0.0 0 0.3 4.3 15.5 90
14/01/2021 18:20 2.0 99 0.0 0 0.1 2.7 9.6 8
14/01/2021 18:30 2.1 97 0.0 0 0.3 3.3 11.8 3
14/01/2021 18:40 2.2 96 0.0 0 0.2 2.6 9.3 352
14/01/2021 18:50 2.0 97 0.0 0 0.2 3.4 12.3 169
14/01/2021 19:00 1.9 98 0.0 0 0.4 3.4 12.3 129
14/01/2021 19:10 1.9 97 0.0 0 0.6 3.9 14.1 131
14/01/2021 19:20 1.9 96 0.0 0 0.6 2.6 9.4 49
14/01/2021 19:30 1.9 98 0.0 0 0.1 4.2 15.1 134
14/01/2021 19:40 1.8 99 0.0 0 0.3 3.3 11.8 160
14/01/2021 19:50 1.9 99 0.0 0 0.3 3.9 14.1 160
14/01/2021 20:00 1.9 99 0.0 0 0.3 3.0 10.9 233
14/01/2021 20:10 1.8 99 0.0 0 0.5 4.8 17.2 171
14/01/2021 20:20 1.7 99 0.0 0 0.4 5.1 18.2 172
14/01/2021 20:30 1.6 97 0.0 0 0.0 5.6 20.2 171
14/01/2021 20:40 1.5 97 0.0 0 0.0 6.9 24.8 127
14/01/2021 20:50 1.5 96 0.0 0 0.2 8.2 29.3 123
14/01/2021 21:00 1.4 95 0.0 0 1.0 6.4 23.1 135
14/01/2021 21:10 1.4 92 0.0 0 0.8 3.6 12.8 113
14/01/2021 21:20 1.3 94 0.0 0 0.7 3.6 12.9 178
14/01/2021 21:30 1.1 97 0.0 0 0.1 5.0 17.9 168
14/01/2021 21:40 1.0 97 0.0 0 0.0 7.6 27.3 116
14/01/2021 21:50 1.0 98 0.0 0 0.1 4.9 17.5 90
14/01/2021 22:00 1.1 97 0.0 0 0.2 3.7 13.1 205
14/01/2021 22:10 1.0 98 0.0 0 1.0 3.9 13.9 184
14/01/2021 22:20 1.0 97 0.0 0 0.3 3.2 11.4 272
14/01/2021 22:30 0.8 97 0.0 0 0.1 3.3 11.7 196
14/01/2021 22:40 0.5 98 0.0 0 0.0 4.4 15.8 152
14/01/2021 22:50 0.4 97 0.0 0 0.0 5.0 17.9 160
14/01/2021 23:00 0.2 95 0.0 0 0.0 6.8 24.5 126
14/01/2021 23:10 -0.0 95 0.0 0 0.0 8.9 32.1 122
14/01/2021 23:20 -0.1 93 0.0 0 0.0 8.2 29.6 119
14/01/2021 23:30 -0.2 93 0.0 0 0.0 9.4 34.0 118
14/01/2021 23:40 -0.2 93 0.0 0 0.0 8.4 30.1 120
14/01/2021 23:50 -0.3 94 0.0 0 0.0 7.4 26.6 116
Anterior Página 1 de 1 Siguiente

NOTA: Tipo de datos según el color:
   - Valores diarios o 10 minutos correctos
   - Valores diarios calculados a partir de un número de datos 10 minutos menor que 144 y mayor que 120, o de un número de datos semihorarios menor que 48 y mayor que 40 (caso de las estaciones de INTIA Y Ministerio)
   - Valores diez minutos estimados


Contacto        Enlaces        Aviso legal